Terminal Aerodrome Forecast
Issued by NWS Atlanta, GA

Home | Current Version | Previous Version | Text Only | Print | Product List | Glossary On
Versions: 1 2 3 4 5 6 7 8 9 10 11 12 13 14 15 16 17 18 19 20 21 22 23 24 25 26 27 28 29 30 31 32 33
000
FTAK31 PAJN 271200 AAA
TAFAHN
TAF AMD
PAHN 271207Z 2712/2812 VRB05KT P6SM VCSH SCT030 OVC060
      TEMPO 2712/2716 -SHRA BKN020 OVC030
     FM271800 13008KT P6SM VCSH SCT025 OVC050
     FM280000 12010G18KT P6SM VCSH SCT025 OVC050
     FM280500 VRB05KT P6SM OVC070
      AMD LTD TO CLD VIS AND WIND=

USA.gov is the U.S. government's official web portal to all federal, state and local government web resources and services.